createdAt,value
2019-05-18T00:00:47.524Z,1004.84
2019-05-18T00:01:47.575Z,1004.81
2019-05-18T00:02:47.497Z,1004.82
2019-05-18T00:03:47.484Z,1004.80
2019-05-18T00:04:47.474Z,1004.82
2019-05-18T00:05:47.531Z,1004.79
2019-05-18T00:06:47.460Z,1004.78
2019-05-18T00:07:47.440Z,1004.83
2019-05-18T00:08:47.438Z,1004.80
2019-05-18T00:09:47.423Z,1004.78
2019-05-18T00:10:47.407Z,1004.74
2019-05-18T00:11:47.409Z,1004.80
2019-05-18T00:12:47.396Z,1004.73
2019-05-18T00:13:47.381Z,1004.74
2019-05-18T00:14:47.368Z,1004.72
2019-05-18T00:15:47.353Z,1004.72
2019-05-18T00:16:47.424Z,1004.77
2019-05-18T00:17:47.413Z,1004.76
2019-05-18T00:18:47.324Z,1004.76
2019-05-18T00:19:47.316Z,1004.75
2019-05-18T00:20:47.362Z,1004.75
2019-05-18T00:21:47.292Z,1004.78
2019-05-18T00:22:47.359Z,1004.79
2019-05-18T00:23:47.270Z,1004.74
2019-05-18T00:24:47.257Z,1004.75
2019-05-18T00:25:47.241Z,1004.81
2019-05-18T00:26:47.235Z,1004.78
2019-05-18T00:27:47.306Z,1004.76
2019-05-18T00:28:47.213Z,1004.79
2019-05-18T00:29:47.204Z,1004.84
2019-05-18T00:30:47.193Z,1004.83
2019-05-18T00:31:47.179Z,1004.84
2019-05-18T00:32:47.270Z,1004.80
2019-05-18T00:33:47.170Z,1004.80
2019-05-18T00:34:47.148Z,1004.80
2019-05-18T00:35:47.133Z,1004.79
2019-05-18T00:36:47.127Z,1004.82
2019-05-18T00:37:47.113Z,1004.84
2019-05-18T00:38:47.180Z,1004.85
2019-05-18T00:39:47.094Z,1004.81
2019-05-18T00:40:47.501Z,1004.84
2019-05-18T00:41:47.072Z,1004.78
2019-05-18T00:42:47.054Z,1004.81
2019-05-18T00:43:47.149Z,1004.82
2019-05-18T00:44:47.115Z,1004.76
2019-05-18T00:45:47.023Z,1004.79
2019-05-18T00:46:47.019Z,1004.78
2019-05-18T00:47:47.000Z,1004.75
2019-05-18T00:48:47.000Z,1004.77
2019-05-18T00:49:46.988Z,1004.80
2019-05-18T00:50:47.047Z,1004.79
2019-05-18T00:51:46.963Z,1004.79
2019-05-18T00:52:46.943Z,1004.72
2019-05-18T00:53:46.942Z,1004.70
2019-05-18T00:54:46.925Z,1004.73
2019-05-18T00:55:46.914Z,1004.73
2019-05-18T00:56:46.980Z,1004.73
2019-05-18T00:57:46.887Z,1004.73
2019-05-18T00:58:46.899Z,1004.72
2019-05-18T00:59:46.868Z,1004.75
2019-05-18T01:00:46.858Z,1004.76
2019-05-18T01:01:46.925Z,1004.78
2019-05-18T01:02:46.841Z,1004.77
2019-05-18T01:03:46.821Z,1004.75
2019-05-18T01:04:46.812Z,1004.75
2019-05-18T01:05:46.882Z,1004.70
2019-05-18T01:06:46.794Z,1004.68
2019-05-18T01:07:46.859Z,1004.68
2019-05-18T01:08:46.770Z,1004.68
2019-05-18T01:09:46.752Z,1004.69
2019-05-18T01:10:46.747Z,1004.71
2019-05-18T01:11:46.812Z,1004.71
2019-05-18T01:12:46.827Z,1004.71
2019-05-18T01:13:46.714Z,1004.72
2019-05-18T01:14:46.701Z,1004.76
2019-05-18T01:15:46.688Z,1004.78
2019-05-18T01:16:46.697Z,1004.76
2019-05-18T01:17:56.796Z,1004.71
2019-05-18T01:18:47.735Z,1004.72
2019-05-18T01:19:46.645Z,1004.74
2019-05-18T01:20:46.636Z,1004.76
2019-05-18T01:21:46.622Z,1004.75
2019-05-18T01:22:46.618Z,1004.71
2019-05-18T01:23:46.679Z,1004.69
2019-05-18T01:24:46.604Z,1004.72
2019-05-18T01:25:46.577Z,1004.70
2019-05-18T01:26:46.568Z,1004.68
2019-05-18T01:27:46.553Z,1004.68
2019-05-18T01:28:46.623Z,1004.68
2019-05-18T01:29:46.534Z,1004.67
2019-05-18T01:30:46.523Z,1004.67
2019-05-18T01:31:46.510Z,1004.72
2019-05-18T01:32:46.499Z,1004.65
2019-05-18T01:33:46.555Z,1004.64
2019-05-18T01:34:46.476Z,1004.61
2019-05-18T01:35:46.461Z,1004.63
2019-05-18T01:36:46.458Z,1004.60
2019-05-18T01:37:46.439Z,1004.63
2019-05-18T01:38:46.539Z,1004.62
2019-05-18T01:39:46.421Z,1004.64
2019-05-18T01:40:46.405Z,1004.64
2019-05-18T01:41:46.394Z,1004.68
2019-05-18T01:42:46.387Z,1004.74
2019-05-18T01:43:46.456Z,1004.79
2019-05-18T01:44:46.359Z,1004.77
2019-05-18T01:45:46.352Z,1004.76
2019-05-18T01:46:46.337Z,1004.80
2019-05-18T01:47:46.415Z,1004.81
2019-05-18T01:48:46.321Z,1004.82
2019-05-18T01:49:46.310Z,1004.75
2019-05-18T01:50:46.304Z,1004.82
2019-05-18T01:51:46.287Z,1004.84
2019-05-18T01:52:46.289Z,1004.78
2019-05-18T01:53:46.270Z,1004.81
2019-05-18T01:54:46.259Z,1004.78
2019-05-18T01:55:46.327Z,1004.79
2019-05-18T01:56:46.246Z,1004.82
2019-05-18T01:57:46.218Z,1004.79
2019-05-18T01:58:46.204Z,1004.77
2019-05-18T01:59:46.201Z,1004.80
2019-05-18T02:00:46.291Z,1004.77
2019-05-18T02:01:46.171Z,1004.81
2019-05-18T02:02:46.164Z,1004.77
2019-05-18T02:03:46.152Z,1004.78
2019-05-18T02:04:46.144Z,1004.74
2019-05-18T02:05:46.151Z,1004.78
2019-05-18T02:06:46.197Z,1004.77
2019-05-18T02:07:46.108Z,1004.75
2019-05-18T02:08:46.096Z,1004.77
2019-05-18T02:09:46.081Z,1004.78
2019-05-18T02:10:46.072Z,1004.80
2019-05-18T02:11:46.056Z,1004.81
2019-05-18T02:12:46.131Z,1004.78
2019-05-18T02:13:46.037Z,1004.79
2019-05-18T02:14:46.031Z,1004.77
2019-05-18T02:15:46.012Z,1004.76
2019-05-18T02:16:46.006Z,1004.79
2019-05-18T02:17:46.071Z,1004.79
2019-05-18T02:18:45.985Z,1004.79
2019-05-18T02:19:46.934Z,1004.77
2019-05-18T02:20:45.961Z,1004.80
2019-05-18T02:21:45.947Z,1004.76
2019-05-18T02:22:45.938Z,1004.81
2019-05-18T02:23:46.018Z,1004.81
2019-05-18T02:24:45.918Z,1004.83
2019-05-18T02:25:45.903Z,1004.86
2019-05-18T02:26:45.895Z,1004.82
2019-05-18T02:27:45.884Z,1004.87
2019-05-18T02:28:45.994Z,1004.82
2019-05-18T02:29:45.907Z,1004.89
2019-05-18T02:30:45.851Z,1004.88
2019-05-18T02:31:45.837Z,1004.83
2019-05-18T02:32:45.874Z,1004.84
2019-05-18T02:33:45.812Z,1004.81
2019-05-18T02:34:45.852Z,1004.82
2019-05-18T02:35:45.792Z,1004.83
2019-05-18T02:36:45.781Z,1004.82
2019-05-18T02:37:45.773Z,1004.80
2019-05-18T02:38:45.773Z,1004.80
2019-05-18T02:39:45.742Z,1004.82
2019-05-18T02:40:45.732Z,1004.78
2019-05-18T02:41:45.728Z,1004.85
2019-05-18T02:42:45.710Z,1004.77
2019-05-18T02:43:45.785Z,1004.76
2019-05-18T02:44:45.794Z,1004.77
2019-05-18T02:45:45.683Z,1004.73
2019-05-18T02:46:45.668Z,1004.79
2019-05-18T02:47:45.658Z,1004.71
2019-05-18T02:48:50.030Z,1004.75
2019-05-18T02:49:45.630Z,1004.73
2019-05-18T02:50:45.666Z,1004.73
2019-05-18T02:51:45.608Z,1004.71
2019-05-18T02:52:45.605Z,1004.66
2019-05-18T02:53:45.589Z,1004.61
2019-05-18T02:54:45.573Z,1004.61
2019-05-18T02:55:45.578Z,1004.60
2019-05-18T02:56:45.635Z,1004.61
2019-05-18T02:57:45.543Z,1004.53
2019-05-18T02:58:45.529Z,1004.59
2019-05-18T02:59:45.524Z,1004.55
2019-05-18T03:00:45.520Z,1004.57
2019-05-18T03:01:45.507Z,1004.56
2019-05-18T03:02:45.489Z,1004.58
2019-05-18T03:03:45.473Z,1004.57
2019-05-18T03:04:45.471Z,1004.61
2019-05-18T03:05:45.582Z,1004.66
2019-05-18T03:06:45.442Z,1004.65
2019-05-18T03:07:45.427Z,1004.68
2019-05-18T03:08:45.420Z,1004.69
2019-05-18T03:09:45.410Z,1004.65
2019-05-18T03:10:45.476Z,1004.69
2019-05-18T03:11:45.446Z,1004.67
2019-05-18T03:12:45.373Z,1004.68
2019-05-18T03:13:45.367Z,1004.66
2019-05-18T03:14:45.347Z,1004.64
2019-05-18T03:15:45.425Z,1004.66
2019-05-18T03:16:45.397Z,1004.65
2019-05-18T03:17:45.406Z,1004.66
2019-05-18T03:18:45.307Z,1004.69
2019-05-18T03:19:45.304Z,1004.74
2019-05-18T03:20:45.290Z,1004.73
2019-05-18T03:21:45.270Z,1004.73
2019-05-18T03:22:45.363Z,1004.75
2019-05-18T03:23:45.253Z,1004.75
2019-05-18T03:24:45.248Z,1004.74
2019-05-18T03:25:45.232Z,1004.75
2019-05-18T03:26:45.214Z,1004.72
2019-05-18T03:27:45.208Z,1004.74
2019-05-18T03:28:45.258Z,1004.76
2019-05-18T03:29:45.179Z,1004.75
2019-05-18T03:30:45.170Z,1004.80
2019-05-18T03:31:45.181Z,1004.79
2019-05-18T03:32:45.148Z,1004.75
2019-05-18T03:33:45.160Z,1004.76
2019-05-18T03:34:45.138Z,1004.77
2019-05-18T03:35:45.116Z,1004.76
2019-05-18T03:36:45.103Z,1004.76
2019-05-18T03:37:45.109Z,1004.77
2019-05-18T03:38:45.084Z,1004.80
2019-05-18T03:39:45.072Z,1004.75
2019-05-18T03:40:45.135Z,1004.76
2019-05-18T03:41:45.049Z,1004.73
2019-05-18T03:42:45.035Z,1004.70
2019-05-18T03:43:45.031Z,1004.71
2019-05-18T03:44:45.017Z,1004.67
2019-05-18T03:45:45.008Z,1004.70
2019-05-18T03:46:45.076Z,1004.72
2019-05-18T03:47:44.986Z,1004.71
2019-05-18T03:48:44.971Z,1004.72
2019-05-18T03:49:44.962Z,1004.67
2019-05-18T03:50:44.961Z,1004.70
2019-05-18T03:51:45.026Z,1004.74
2019-05-18T03:52:44.931Z,1004.75
2019-05-18T03:53:44.961Z,1004.70
2019-05-18T03:54:44.908Z,1004.75
2019-05-18T03:55:44.899Z,1004.72
2019-05-18T03:56:44.883Z,1004.77
2019-05-18T03:57:44.955Z,1004.72
2019-05-18T03:58:44.867Z,1004.67
2019-05-18T03:59:44.877Z,1004.66
2019-05-18T04:00:44.838Z,1004.68
2019-05-18T04:01:44.837Z,1004.63
2019-05-18T04:02:44.820Z,1004.62
2019-05-18T04:03:44.811Z,1004.65
2019-05-18T04:04:44.805Z,1004.65
2019-05-18T04:05:44.862Z,1004.66
2019-05-18T04:06:44.775Z,1004.66
2019-05-18T04:07:44.767Z,1004.64
2019-05-18T04:08:44.746Z,1004.68
2019-05-18T04:09:44.752Z,1004.63
2019-05-18T04:10:44.835Z,1004.66
2019-05-18T04:11:44.730Z,1004.65
2019-05-18T04:12:44.709Z,1004.62
2019-05-18T04:13:44.697Z,1004.58
2019-05-18T04:14:44.689Z,1004.58
2019-05-18T04:15:44.667Z,1004.60
2019-05-18T04:16:44.710Z,1004.60
2019-05-18T04:17:51.697Z,1004.60
2019-05-18T04:18:44.641Z,1004.57
2019-05-18T04:19:47.307Z,1004.59
2019-05-18T04:20:44.620Z,1004.63
2019-05-18T04:21:44.607Z,1004.63
2019-05-18T04:22:44.589Z,1004.61
2019-05-18T04:23:44.580Z,1004.62
2019-05-18T04:24:44.632Z,1004.57
2019-05-18T04:25:44.562Z,1004.64
2019-05-18T04:26:44.654Z,1004.60
2019-05-18T04:27:44.541Z,1004.60
2019-05-18T04:28:44.527Z,1004.61
2019-05-18T04:29:44.516Z,1004.53
2019-05-18T04:30:44.504Z,1004.54
2019-05-18T04:31:44.496Z,1004.50
2019-05-18T04:32:44.550Z,1004.54
2019-05-18T04:33:44.550Z,1004.50
2019-05-18T04:34:44.457Z,1004.49
2019-05-18T04:35:44.541Z,1004.48
2019-05-18T04:36:44.436Z,1004.51
2019-05-18T04:37:44.426Z,1004.48
2019-05-18T04:38:44.414Z,1004.51
2019-05-18T04:39:44.407Z,1004.55
2019-05-18T04:40:44.477Z,1004.50
2019-05-18T04:41:44.381Z,1004.53
2019-05-18T04:42:44.377Z,1004.52
2019-05-18T04:43:44.386Z,1004.53
2019-05-18T04:44:44.345Z,1004.53
2019-05-18T04:45:44.332Z,1004.57
2019-05-18T04:46:44.434Z,1004.53
2019-05-18T04:47:48.266Z,1004.54
2019-05-18T04:48:44.301Z,1004.54
2019-05-18T04:49:44.298Z,1004.56
2019-05-18T04:50:44.280Z,1004.57
2019-05-18T04:51:44.268Z,1004.55
2019-05-18T04:52:44.343Z,1004.54
2019-05-18T04:53:44.251Z,1004.63
2019-05-18T04:54:44.235Z,1004.59
2019-05-18T04:55:44.222Z,1004.55
2019-05-18T04:56:44.217Z,1004.54
2019-05-18T04:57:44.307Z,1004.56
2019-05-18T04:58:44.198Z,1004.55
2019-05-18T04:59:44.184Z,1004.53
2019-05-18T05:00:44.178Z,1004.56
2019-05-18T05:01:44.162Z,1004.52
2019-05-18T05:02:44.237Z,1004.55
2019-05-18T05:03:44.164Z,1004.50
2019-05-18T05:04:44.122Z,1004.55
2019-05-18T05:05:44.113Z,1004.51
2019-05-18T05:06:44.114Z,1004.50
2019-05-18T05:07:44.097Z,1004.48
2019-05-18T05:08:44.084Z,1004.52
2019-05-18T05:09:44.090Z,1004.50
2019-05-18T05:10:44.056Z,1004.51
2019-05-18T05:11:44.051Z,1004.53
2019-05-18T05:12:44.056Z,1004.53
2019-05-18T05:13:44.024Z,1004.53
2019-05-18T05:14:44.096Z,1004.50
2019-05-18T05:15:44.006Z,1004.53
2019-05-18T05:16:44.001Z,1004.48
2019-05-18T05:17:43.987Z,1004.41
2019-05-18T05:18:44.073Z,1004.49
2019-05-18T05:19:43.969Z,1004.47
2019-05-18T05:20:43.967Z,1004.46
2019-05-18T05:21:43.935Z,1004.46
2019-05-18T05:22:43.956Z,1004.48
2019-05-18T05:23:43.922Z,1004.49
2019-05-18T05:24:43.968Z,1004.52
2019-05-18T05:25:43.898Z,1004.48
2019-05-18T05:26:43.885Z,1004.48
2019-05-18T05:27:43.875Z,1004.44
2019-05-18T05:28:43.873Z,1004.47
2019-05-18T05:29:43.859Z,1004.48
2019-05-18T05:30:43.847Z,1004.44
2019-05-18T05:31:43.831Z,1004.46
2019-05-18T05:32:43.814Z,1004.48
2019-05-18T05:33:43.918Z,1004.45
2019-05-18T05:34:43.800Z,1004.43
2019-05-18T05:35:43.787Z,1004.45
2019-05-18T05:36:43.774Z,1004.42
2019-05-18T05:37:43.758Z,1004.45
2019-05-18T05:38:43.751Z,1004.49
2019-05-18T05:39:43.792Z,1004.43
2019-05-18T05:40:43.727Z,1004.42
2019-05-18T05:41:43.715Z,1004.41
2019-05-18T05:42:43.711Z,1004.50
2019-05-18T05:43:43.695Z,1004.47
2019-05-18T05:44:43.686Z,1004.49
2019-05-18T05:45:43.735Z,1004.46
2019-05-18T05:46:43.656Z,1004.45
2019-05-18T05:47:43.650Z,1004.51
2019-05-18T05:48:43.640Z,1004.46
2019-05-18T05:49:43.624Z,1004.54
2019-05-18T05:50:43.613Z,1004.56
2019-05-18T05:51:43.684Z,1004.59
2019-05-18T05:52:43.593Z,1004.54
2019-05-18T05:53:43.586Z,1004.54
2019-05-18T05:54:43.571Z,1004.55
2019-05-18T05:55:43.558Z,1004.54
2019-05-18T05:56:43.630Z,1004.55
2019-05-18T05:57:43.547Z,1004.54
2019-05-18T05:58:43.534Z,1004.57
2019-05-18T05:59:43.514Z,1004.57
2019-05-18T06:00:43.508Z,1004.60
2019-05-18T06:01:43.502Z,1004.62
2019-05-18T06:02:43.488Z,1004.63
2019-05-18T06:03:43.472Z,1004.54
2019-05-18T06:04:43.460Z,1004.57
2019-05-18T06:05:43.457Z,1004.55
2019-05-18T06:06:43.547Z,1004.53
2019-05-18T06:07:43.437Z,1004.54
2019-05-18T06:08:43.429Z,1004.58
2019-05-18T06:09:43.417Z,1004.61
2019-05-18T06:10:43.424Z,1004.61
2019-05-18T06:11:43.468Z,1004.63
2019-05-18T06:12:43.476Z,1004.64
2019-05-18T06:13:43.359Z,1004.67
2019-05-18T06:14:43.352Z,1004.63
2019-05-18T06:15:43.344Z,1004.67
2019-05-18T06:16:43.410Z,1004.63
2019-05-18T06:17:43.407Z,1004.63
2019-05-18T06:18:43.308Z,1004.60
2019-05-18T06:19:43.311Z,1004.66
2019-05-18T06:20:51.683Z,1004.65
2019-05-18T06:21:44.270Z,1004.63
2019-05-18T06:22:43.260Z,1004.63
2019-05-18T06:23:43.330Z,1004.68
2019-05-18T06:24:43.250Z,1004.65
2019-05-18T06:25:43.232Z,1004.63
2019-05-18T06:26:43.226Z,1004.58
2019-05-18T06:27:43.211Z,1004.55
2019-05-18T06:28:43.233Z,1004.54
2019-05-18T06:29:43.182Z,1004.50
2019-05-18T06:30:43.176Z,1004.58
2019-05-18T06:31:43.178Z,1004.61
2019-05-18T06:32:43.158Z,1004.56
2019-05-18T06:33:43.148Z,1004.58
2019-05-18T06:34:43.140Z,1004.58
2019-05-18T06:35:43.124Z,1004.59
2019-05-18T06:36:43.108Z,1004.60
2019-05-18T06:37:43.104Z,1004.63
2019-05-18T06:38:43.120Z,1004.63
2019-05-18T06:39:43.081Z,1004.63
2019-05-18T06:40:43.061Z,1004.58
2019-05-18T06:41:43.115Z,1004.60
2019-05-18T06:42:43.045Z,1004.58
2019-05-18T06:43:43.034Z,1004.59
2019-05-18T06:44:43.059Z,1004.57
2019-05-18T06:45:43.031Z,1004.56
2019-05-18T06:46:42.996Z,1004.62
2019-05-18T06:47:42.992Z,1004.60
2019-05-18T06:48:42.981Z,1004.58
2019-05-18T06:49:42.972Z,1004.62
2019-05-18T06:50:42.969Z,1004.57
2019-05-18T06:51:42.940Z,1004.58
2019-05-18T06:52:42.933Z,1004.56
2019-05-18T06:53:42.937Z,1004.58
2019-05-18T06:54:42.909Z,1004.56
2019-05-18T06:55:42.909Z,1004.51
2019-05-18T06:56:42.911Z,1004.57
2019-05-18T06:57:42.872Z,1004.54
2019-05-18T06:58:42.863Z,1004.53
2019-05-18T06:59:42.856Z,1004.57
2019-05-18T07:00:42.857Z,1004.51
2019-05-18T07:01:42.839Z,1004.50
2019-05-18T07:02:42.826Z,1004.59
2019-05-18T07:03:45.041Z,1004.54
2019-05-18T07:04:44.609Z,1004.53
2019-05-18T07:05:42.811Z,1004.55
2019-05-18T07:06:42.777Z,1004.62
2019-05-18T07:07:42.767Z,1004.61
2019-05-18T07:08:42.750Z,1004.59
2019-05-18T07:09:42.738Z,1004.56
2019-05-18T07:10:42.736Z,1004.59
2019-05-18T07:11:42.740Z,1004.60
2019-05-18T07:12:42.720Z,1004.54
2019-05-18T07:13:42.698Z,1004.59
2019-05-18T07:14:42.687Z,1004.58
2019-05-18T07:15:42.722Z,1004.55
2019-05-18T07:16:42.677Z,1004.59
2019-05-18T07:17:42.659Z,1004.54
2019-05-18T07:18:42.647Z,1004.53
2019-05-18T07:19:42.632Z,1004.53
2019-05-18T07:20:42.626Z,1004.51
2019-05-18T07:21:42.619Z,1004.51
2019-05-18T07:22:42.633Z,1004.48
2019-05-18T07:23:43.950Z,1004.46
2019-05-18T07:24:42.583Z,1004.48
2019-05-18T07:25:42.573Z,1004.45
2019-05-18T07:26:42.581Z,1004.51
2019-05-18T07:27:42.550Z,1004.39
2019-05-18T07:28:42.542Z,1004.35
2019-05-18T07:29:42.539Z,1004.38
2019-05-18T07:30:42.512Z,1004.39
2019-05-18T07:31:42.519Z,1004.39
2019-05-18T07:32:42.492Z,1004.43
2019-05-18T07:33:42.482Z,1004.45
2019-05-18T07:34:42.466Z,1004.43
2019-05-18T07:35:42.470Z,1004.44
2019-05-18T07:36:42.447Z,1004.43
2019-05-18T07:37:42.433Z,1004.44
2019-05-18T07:38:42.433Z,1004.47
2019-05-18T07:39:42.419Z,1004.42
2019-05-18T07:40:42.413Z,1004.45
2019-05-18T07:41:46.618Z,1004.41
2019-05-18T07:42:42.405Z,1004.38
2019-05-18T07:43:42.371Z,1004.39
2019-05-18T07:44:42.363Z,1004.36
2019-05-18T07:45:42.349Z,1004.25
2019-05-18T07:46:42.343Z,1004.33
2019-05-18T07:47:42.365Z,1004.31
2019-05-18T07:48:42.329Z,1004.26
2019-05-18T07:49:42.303Z,1004.33
2019-05-18T07:50:42.301Z,1004.32
2019-05-18T07:51:42.292Z,1004.34
2019-05-18T07:52:42.280Z,1004.26
2019-05-18T07:53:42.265Z,1004.27
2019-05-18T07:54:42.252Z,1004.34
2019-05-18T07:55:42.242Z,1004.31
2019-05-18T07:56:42.580Z,1004.24
2019-05-18T07:57:42.220Z,1004.28
2019-05-18T07:58:42.219Z,1004.20
2019-05-18T07:59:42.200Z,1004.25
2019-05-18T08:00:42.188Z,1004.22
2019-05-18T08:01:42.181Z,1004.06
2019-05-18T08:02:42.166Z,1004.11
2019-05-18T08:03:42.160Z,1004.13
2019-05-18T08:04:42.141Z,1004.15
2019-05-18T08:05:42.134Z,1004.14
2019-05-18T08:06:42.141Z,1004.18
2019-05-18T08:07:42.107Z,1004.13
2019-05-18T08:08:42.101Z,1004.15
2019-05-18T08:09:42.089Z,1004.19
2019-05-18T08:10:43.702Z,1004.12
2019-05-18T08:11:42.063Z,1004.20
2019-05-18T08:12:42.069Z,1004.22
2019-05-18T08:13:42.045Z,1004.19
2019-05-18T08:14:42.036Z,1004.17
2019-05-18T08:15:42.030Z,1004.16
2019-05-18T08:16:42.030Z,1004.19
2019-05-18T08:17:41.999Z,1004.15
2019-05-18T08:18:42.101Z,1004.20
2019-05-18T08:19:41.980Z,1004.26
2019-05-18T08:20:42.002Z,1004.20
2019-05-18T08:21:52.694Z,1004.19
2019-05-18T08:22:42.986Z,1004.27
2019-05-18T08:23:41.937Z,1004.35
2019-05-18T08:24:41.935Z,1004.21
2019-05-18T08:25:41.918Z,1004.23
2019-05-18T08:26:41.904Z,1004.22
2019-05-18T08:27:41.889Z,1004.23
2019-05-18T08:28:41.895Z,1004.26
2019-05-18T08:29:41.876Z,1004.16
2019-05-18T08:30:41.861Z,1004.14
2019-05-18T08:31:41.853Z,1004.15
2019-05-18T08:32:41.847Z,1004.08
2019-05-18T08:33:41.847Z,1004.07
2019-05-18T08:34:41.824Z,1004.17
2019-05-18T08:35:41.809Z,1004.07
2019-05-18T08:36:41.793Z,1004.15
2019-05-18T08:37:41.786Z,1004.16
2019-05-18T08:38:41.789Z,1004.14
2019-05-18T08:39:41.771Z,1004.15
2019-05-18T08:40:41.756Z,1004.21
2019-05-18T08:41:41.752Z,1004.14
2019-05-18T08:42:41.755Z,1004.18
2019-05-18T08:43:41.746Z,1004.19
2019-05-18T08:44:41.710Z,1004.20
2019-05-18T08:45:41.714Z,1004.26
2019-05-18T08:46:41.689Z,1004.22
2019-05-18T08:47:41.685Z,1004.32
2019-05-18T08:48:41.680Z,1004.22
2019-05-18T08:49:41.668Z,1004.22
2019-05-18T08:50:41.648Z,1004.26
2019-05-18T08:51:41.638Z,1004.18
2019-05-18T08:52:41.629Z,1004.24
2019-05-18T08:53:41.617Z,1004.29
2019-05-18T08:54:41.616Z,1004.29
2019-05-18T08:55:41.606Z,1004.25
2019-05-18T08:56:41.609Z,1004.17
2019-05-18T08:57:41.571Z,1004.27
2019-05-18T08:58:41.563Z,1004.15
2019-05-18T08:59:41.554Z,1004.19
2019-05-18T09:00:41.550Z,1004.19
2019-05-18T09:01:41.543Z,1004.20
2019-05-18T09:02:41.530Z,1004.12
2019-05-18T09:03:41.511Z,1004.20
2019-05-18T09:04:41.526Z,1004.21
2019-05-18T09:05:41.487Z,1004.20
2019-05-18T09:06:41.478Z,1004.24
2019-05-18T09:07:41.469Z,1004.20
2019-05-18T09:08:41.456Z,1004.28
2019-05-18T09:09:41.448Z,1004.23
2019-05-18T09:10:41.452Z,1004.32
2019-05-18T09:11:41.426Z,1004.23
2019-05-18T09:12:41.433Z,1004.24
2019-05-18T09:13:41.410Z,1004.25
2019-05-18T09:14:41.421Z,1004.23
2019-05-18T09:15:41.401Z,1004.21
2019-05-18T09:16:41.384Z,1004.24
2019-05-18T09:17:41.366Z,1004.17
2019-05-18T09:18:41.353Z,1004.21
2019-05-18T09:19:41.344Z,1004.26
2019-05-18T09:20:41.339Z,1004.17
2019-05-18T09:21:41.345Z,1004.27
2019-05-18T09:22:41.325Z,1004.24
2019-05-18T09:23:41.311Z,1004.19
2019-05-18T09:24:41.303Z,1004.23
2019-05-18T09:25:41.293Z,1004.19
2019-05-18T09:26:41.309Z,1004.18
2019-05-18T09:27:41.267Z,1004.26
2019-05-18T09:28:41.262Z,1004.25
2019-05-18T09:29:41.263Z,1004.22
2019-05-18T09:30:41.467Z,1004.30
2019-05-18T09:31:41.253Z,1004.16
2019-05-18T09:32:41.272Z,1004.19
2019-05-18T09:33:41.211Z,1004.21
2019-05-18T09:34:41.200Z,1004.07
2019-05-18T09:35:41.192Z,1004.24
2019-05-18T09:36:41.239Z,1004.21
2019-05-18T09:37:41.173Z,1004.12
2019-05-18T09:38:41.170Z,1004.19
2019-05-18T09:39:41.161Z,1004.16
2019-05-18T09:40:41.150Z,1004.16
2019-05-18T09:41:41.202Z,1004.22
2019-05-18T09:42:41.155Z,1004.09
2019-05-18T09:43:41.140Z,1004.14
2019-05-18T09:44:41.109Z,1004.30
2019-05-18T09:45:41.100Z,1004.19
2019-05-18T09:46:41.088Z,1004.15
2019-05-18T09:47:41.089Z,1004.19
2019-05-18T09:48:41.076Z,1004.18
2019-05-18T09:49:41.078Z,1004.13
2019-05-18T09:50:41.075Z,1004.15
2019-05-18T09:51:41.056Z,1004.17
2019-05-18T09:52:45.926Z,1004.22
2019-05-18T09:53:51.099Z,1004.17
2019-05-18T09:54:42.029Z,1004.11
2019-05-18T09:55:41.006Z,1004.19
2019-05-18T09:56:40.997Z,1004.14
2019-05-18T09:57:40.987Z,1004.04
2019-05-18T09:58:40.987Z,1004.13
2019-05-18T09:59:40.980Z,1004.12
2019-05-18T10:00:40.964Z,1004.06
2019-05-18T10:01:40.957Z,1004.07
2019-05-18T10:02:40.954Z,1003.50
2019-05-18T10:03:40.937Z,1004.04
2019-05-18T10:04:40.939Z,1004.00
2019-05-18T10:05:40.913Z,1003.78
2019-05-18T10:06:40.907Z,1003.86
2019-05-18T10:07:40.899Z,1003.95
2019-05-18T10:08:40.889Z,1003.93
2019-05-18T10:09:40.916Z,1003.96
2019-05-18T10:10:40.869Z,1003.96
2019-05-18T10:11:40.858Z,1004.01
2019-05-18T10:12:40.850Z,1004.00
2019-05-18T10:13:40.853Z,1003.89
2019-05-18T10:14:40.832Z,1003.93
2019-05-18T10:15:40.832Z,1003.91
2019-05-18T10:16:40.827Z,1003.88
2019-05-18T10:17:40.817Z,1003.36
2019-05-18T10:18:40.807Z,1003.87
2019-05-18T10:19:40.785Z,1003.89
2019-05-18T10:20:40.783Z,1003.83
2019-05-18T10:21:40.793Z,1003.83
2019-05-18T10:22:53.366Z,1003.83
2019-05-18T10:23:41.746Z,1003.91
2019-05-18T10:24:40.735Z,1003.31
2019-05-18T10:25:40.725Z,1003.35
2019-05-18T10:26:40.725Z,1003.30
2019-05-18T10:27:40.712Z,1003.39
2019-05-18T10:28:41.134Z,1003.75
2019-05-18T10:29:40.686Z,1003.12
2019-05-18T10:30:40.682Z,1003.28
2019-05-18T10:31:40.673Z,1003.45
2019-05-18T10:32:40.663Z,1003.13
2019-05-18T10:33:40.651Z,1003.60
2019-05-18T10:34:40.650Z,1003.60
2019-05-18T10:35:40.630Z,1003.65
2019-05-18T10:36:40.618Z,1003.12
2019-05-18T10:37:40.613Z,1003.58
2019-05-18T10:38:40.612Z,1003.48
2019-05-18T10:39:40.591Z,1003.01
2019-05-18T10:40:40.581Z,1003.06
2019-05-18T10:41:40.567Z,1002.99
2019-05-18T10:42:40.572Z,1002.91
2019-05-18T10:43:40.592Z,1002.93
2019-05-18T10:44:40.560Z,1003.42
2019-05-18T10:45:44.492Z,1003.31
2019-05-18T10:46:40.521Z,1002.88
2019-05-18T10:47:40.507Z,1003.26
2019-05-18T10:48:40.495Z,1003.29
2019-05-18T10:49:40.511Z,1003.25
2019-05-18T10:50:40.514Z,1002.96
2019-05-18T10:51:40.471Z,1003.26
2019-05-18T10:52:40.464Z,1002.86
2019-05-18T10:53:40.454Z,1002.80
2019-05-18T10:54:40.450Z,1002.79
2019-05-18T10:55:40.439Z,1002.75
2019-05-18T10:56:40.421Z,1003.15
2019-05-18T10:57:40.406Z,1002.71
2019-05-18T10:58:40.402Z,1002.90
2019-05-18T10:59:40.385Z,1002.99
2019-05-18T11:00:40.386Z,1003.04
2019-05-18T11:01:43.748Z,1002.73
2019-05-18T11:02:40.374Z,1002.66
2019-05-18T11:03:40.343Z,1002.69
2019-05-18T11:04:40.342Z,1002.76
2019-05-18T11:05:40.335Z,1002.67
2019-05-18T11:06:40.312Z,1002.58
2019-05-18T11:07:40.302Z,1002.61
2019-05-18T11:08:40.299Z,1002.48
2019-05-18T11:09:40.288Z,1002.61
2019-05-18T11:10:40.286Z,1002.56
2019-05-18T11:11:40.275Z,1002.50
2019-05-18T11:12:40.256Z,1002.54
2019-05-18T11:13:40.277Z,1002.51
2019-05-18T11:14:40.235Z,1002.52
2019-05-18T11:15:40.232Z,1002.51
2019-05-18T11:16:40.211Z,1002.43
2019-05-18T11:17:40.221Z,1002.51
2019-05-18T11:18:40.191Z,1002.52
2019-05-18T11:19:40.177Z,1002.40
2019-05-18T11:20:40.164Z,1002.50
2019-05-18T11:21:40.167Z,1002.47
2019-05-18T11:22:40.152Z,1002.46
2019-05-18T11:23:44.106Z,1002.49
2019-05-18T11:24:41.139Z,1002.53
2019-05-18T11:25:40.117Z,1002.41
2019-05-18T11:26:40.118Z,1002.37
2019-05-18T11:27:40.120Z,1002.47
2019-05-18T11:28:40.080Z,1002.56
2019-05-18T11:29:40.068Z,1002.55
2019-05-18T11:30:40.059Z,1002.56
2019-05-18T11:31:40.053Z,1002.49
2019-05-18T11:32:40.051Z,1002.48
2019-05-18T11:33:40.036Z,1002.41
2019-05-18T11:34:40.025Z,1002.38
2019-05-18T11:35:40.010Z,1002.53
2019-05-18T11:36:40.003Z,1002.43
2019-05-18T11:37:40.003Z,1002.41
2019-05-18T11:38:39.978Z,1002.46
2019-05-18T11:39:40.011Z,1002.48
2019-05-18T11:40:39.953Z,1002.47
2019-05-18T11:41:39.946Z,1002.45
2019-05-18T11:42:39.950Z,1002.48
2019-05-18T11:43:39.919Z,1002.43
2019-05-18T11:44:39.909Z,1002.40
2019-05-18T11:45:39.907Z,1002.31
2019-05-18T11:46:39.891Z,1002.39
2019-05-18T11:47:39.881Z,1002.59
2019-05-18T11:48:40.006Z,1002.50
2019-05-18T11:49:39.857Z,1002.47
2019-05-18T11:50:39.844Z,1002.49
2019-05-18T11:51:39.863Z,1002.44
2019-05-18T11:52:39.829Z,1002.33
2019-05-18T11:53:39.812Z,1002.38
2019-05-18T11:54:39.816Z,1002.34
2019-05-18T11:55:39.838Z,1002.36
2019-05-18T11:56:39.797Z,1002.45
2019-05-18T11:57:39.773Z,1002.42
2019-05-18T11:58:39.782Z,1002.42
2019-05-18T11:59:39.755Z,1002.31
2019-05-18T12:00:39.741Z,1002.39
2019-05-18T12:01:39.733Z,1002.35
2019-05-18T12:02:39.728Z,1002.37
2019-05-18T12:03:39.723Z,1002.44
2019-05-18T12:04:39.710Z,1002.37
2019-05-18T12:05:39.690Z,1002.33